createdAt,value
2023-02-05T00:01:49.452Z,-0.14
2023-02-05T00:04:17.557Z,-0.44
2023-02-05T00:06:47.263Z,-0.71
2023-02-05T00:09:15.167Z,-1.00
2023-02-05T00:11:43.087Z,-0.37
2023-02-05T00:14:11.077Z,-0.38
2023-02-05T00:16:39.031Z,-0.49
2023-02-05T00:19:07.323Z,-0.27
2023-02-05T00:21:35.209Z,-0.52
2023-02-05T00:24:04.921Z,-0.28
2023-02-05T00:26:33.073Z,-0.30
2023-02-05T00:29:01.030Z,-0.33
2023-02-05T00:31:29.570Z,-0.30
2023-02-05T00:33:57.930Z,-0.29
2023-02-05T00:36:27.423Z,-0.45
2023-02-05T00:38:55.529Z,-0.40
2023-02-05T00:41:24.772Z,-0.41
2023-02-05T00:43:52.678Z,-0.56
2023-02-05T00:46:20.670Z,-1.87
2023-02-05T00:48:48.807Z,-0.53
2023-02-05T00:51:16.705Z,-0.51
2023-02-05T00:53:44.660Z,-0.52
2023-02-05T00:56:12.875Z,-0.54
2023-02-05T00:58:47.347Z,-0.58
2023-02-05T01:01:15.840Z,-0.58
2023-02-05T01:03:44.310Z,-0.55
2023-02-05T01:06:12.306Z,-1.06
2023-02-05T01:08:40.522Z,-0.77
2023-02-05T01:11:10.286Z,-0.70
2023-02-05T01:13:38.646Z,-0.72
2023-02-05T01:16:10.349Z,-0.67
2023-02-05T01:18:38.560Z,-0.71
2023-02-05T01:21:06.782Z,-0.98
2023-02-05T01:23:34.766Z,-0.75
2023-02-05T01:26:02.634Z,-0.70
2023-02-05T01:28:30.580Z,-1.04
2023-02-05T01:30:58.718Z,-0.52
2023-02-05T01:33:28.160Z,-0.27
2023-02-05T01:35:56.540Z,-0.25
2023-02-05T01:38:24.474Z,-0.23
2023-02-05T01:40:52.616Z,-0.34
2023-02-05T01:43:20.938Z,-0.68
2023-02-05T01:46:04.814Z,-0.40
2023-02-05T01:48:39.509Z,-1.11
2023-02-05T01:51:12.894Z,-0.35
2023-02-05T01:53:41.431Z,-0.61
2023-02-05T01:56:15.787Z,-0.49
2023-02-05T01:58:49.244Z,-0.58
2023-02-05T02:01:17.390Z,-0.49
2023-02-05T02:03:47.394Z,-0.58
2023-02-05T02:06:15.273Z,-0.47
2023-02-05T02:08:43.851Z,-0.51
2023-02-05T02:11:17.097Z,-0.39
2023-02-05T02:13:48.398Z,-0.52
2023-02-05T02:16:17.318Z,-0.41
2023-02-05T02:18:47.529Z,-0.45
2023-02-05T02:21:36.162Z,-0.40
2023-02-05T02:24:29.791Z,-0.38
2023-02-05T02:27:23.727Z,-0.61
2023-02-05T02:29:58.669Z,-0.47
2023-02-05T02:32:36.554Z,-0.51
2023-02-05T02:35:11.859Z,-0.57
2023-02-05T02:37:48.459Z,-0.95
2023-02-05T02:40:21.957Z,-1.00
2023-02-05T02:42:57.005Z,-1.05
2023-02-05T02:45:30.433Z,-1.39
2023-02-05T02:48:01.826Z,-1.05
2023-02-05T02:50:34.863Z,-0.93
2023-02-05T02:53:06.122Z,-0.87
2023-02-05T02:55:38.280Z,-0.71
2023-02-05T02:58:09.817Z,-0.63
2023-02-05T03:00:42.869Z,-1.04
2023-02-05T03:03:14.712Z,-1.09
2023-02-05T03:05:45.384Z,-0.73
2023-02-05T03:08:18.457Z,-1.00
2023-02-05T03:10:52.009Z,-0.70
2023-02-05T03:13:20.639Z,-0.75
2023-02-05T03:15:56.178Z,-0.81
2023-02-05T03:18:25.560Z,-0.70
2023-02-05T03:20:56.567Z,-0.62
2023-02-05T03:23:24.997Z,-0.58
2023-02-05T03:25:52.872Z,-0.52
2023-02-05T03:28:25.938Z,-0.37
2023-02-05T03:31:04.546Z,-0.42
2023-02-05T03:33:48.139Z,-0.42
2023-02-05T03:36:26.534Z,-0.10
2023-02-05T03:39:12.350Z,-0.01
2023-02-05T03:41:57.706Z,-0.10
2023-02-05T03:44:48.002Z,0.02
2023-02-05T03:47:30.949Z,-0.02
2023-02-05T03:50:08.312Z,-0.27
2023-02-05T03:52:42.877Z,0.16
2023-02-05T03:55:18.489Z,0.33
2023-02-05T03:57:53.747Z,-1.62
2023-02-05T04:00:24.820Z,0.32
2023-02-05T04:02:56.065Z,0.02
2023-02-05T04:05:29.155Z,0.46
2023-02-05T04:07:58.854Z,0.47
2023-02-05T04:10:32.853Z,0.40
2023-02-05T04:13:03.186Z,0.43
2023-02-05T04:15:32.178Z,0.60
2023-02-05T04:18:04.307Z,-0.44
2023-02-05T04:20:32.614Z,0.52
2023-02-05T04:23:01.305Z,0.62
2023-02-05T04:25:31.547Z,0.77
2023-02-05T04:28:01.924Z,0.84
2023-02-05T04:30:31.359Z,1.07
2023-02-05T04:32:59.729Z,0.96
2023-02-05T04:35:29.054Z,0.64
2023-02-05T04:37:57.344Z,0.83
2023-02-05T04:40:25.371Z,0.30
2023-02-05T04:42:53.263Z,0.79
2023-02-05T04:45:22.651Z,0.64
2023-02-05T04:47:50.584Z,0.79
2023-02-05T04:50:18.515Z,0.87
2023-02-05T04:52:47.810Z,0.86
2023-02-05T04:55:16.136Z,0.69
2023-02-05T04:57:43.976Z,0.41
2023-02-05T05:00:13.151Z,1.06
2023-02-05T05:02:41.132Z,1.26
2023-02-05T05:05:09.733Z,1.26
2023-02-05T05:07:37.510Z,1.29
2023-02-05T05:10:08.205Z,1.22
2023-02-05T05:12:36.894Z,1.09
2023-02-05T05:15:05.719Z,1.09
2023-02-05T05:17:34.534Z,1.00
2023-02-05T05:20:02.468Z,1.12
2023-02-05T05:22:30.408Z,1.10
2023-02-05T05:24:58.391Z,1.01
2023-02-05T05:27:27.676Z,0.30
2023-02-05T05:29:55.639Z,1.25
2023-02-05T05:32:23.621Z,1.21
2023-02-05T05:34:51.518Z,1.19
2023-02-05T05:37:19.468Z,1.33
2023-02-05T05:40:04.812Z,1.38
2023-02-05T05:42:51.175Z,1.22
2023-02-05T05:45:19.255Z,1.31
2023-02-05T05:47:47.196Z,1.25
2023-02-05T05:50:15.437Z,1.32
2023-02-05T05:52:43.392Z,1.28
2023-02-05T05:55:11.248Z,1.31
2023-02-05T05:57:40.585Z,1.23
2023-02-05T06:00:09.429Z,0.87
2023-02-05T06:02:46.051Z,1.18
2023-02-05T06:05:14.025Z,1.24
2023-02-05T06:07:41.966Z,1.20
2023-02-05T06:10:10.140Z,1.28
2023-02-05T06:12:38.059Z,1.42
2023-02-05T06:15:08.616Z,1.38
2023-02-05T06:17:36.557Z,1.28
2023-02-05T06:20:04.973Z,1.35
2023-02-05T06:22:32.929Z,1.19
2023-02-05T06:25:02.264Z,1.29
2023-02-05T06:27:30.162Z,1.41
2023-02-05T06:29:58.069Z,1.36
2023-02-05T06:32:27.224Z,1.56
2023-02-05T06:34:55.166Z,1.50
2023-02-05T06:37:34.152Z,1.29
2023-02-05T06:40:15.880Z,0.88
2023-02-05T06:42:44.005Z,0.70
2023-02-05T06:45:12.237Z,1.48
2023-02-05T06:47:41.480Z,1.34
2023-02-05T06:50:10.033Z,1.61
2023-02-05T06:52:38.314Z,1.46
2023-02-05T06:55:07.034Z,1.59
2023-02-05T06:57:34.944Z,1.14
2023-02-05T07:00:02.901Z,1.52
2023-02-05T07:02:30.877Z,1.49
2023-02-05T07:05:00.099Z,1.54
2023-02-05T07:07:28.351Z,1.06
2023-02-05T07:09:56.287Z,1.45
2023-02-05T07:12:24.241Z,1.46
2023-02-05T07:14:52.109Z,1.34
2023-02-05T07:17:20.897Z,1.55
2023-02-05T07:19:49.048Z,1.56
2023-02-05T07:22:18.426Z,1.55
2023-02-05T07:24:47.520Z,1.58
2023-02-05T07:27:15.463Z,1.60
2023-02-05T07:29:43.868Z,1.61
2023-02-05T07:32:11.971Z,1.46
2023-02-05T07:34:40.339Z,1.09
2023-02-05T07:37:08.252Z,1.66
2023-02-05T07:39:37.601Z,1.74
2023-02-05T07:42:05.977Z,1.72
2023-02-05T07:44:42.945Z,1.70
2023-02-05T07:47:10.909Z,1.97
2023-02-05T07:49:38.793Z,1.96
2023-02-05T07:52:07.759Z,1.85
2023-02-05T07:54:37.144Z,1.73
2023-02-05T07:57:06.951Z,1.75
2023-02-05T07:59:35.031Z,0.30
2023-02-05T08:02:03.257Z,1.66
2023-02-05T08:04:31.380Z,1.47
2023-02-05T08:06:59.351Z,1.76
2023-02-05T08:09:27.336Z,1.68
2023-02-05T08:11:56.745Z,1.42
2023-02-05T08:14:24.715Z,1.76
2023-02-05T08:16:52.972Z,1.74
2023-02-05T08:19:20.937Z,1.38
2023-02-05T08:21:48.977Z,1.93
2023-02-05T08:24:16.962Z,1.95
2023-02-05T08:26:44.848Z,1.94
2023-02-05T08:29:14.136Z,1.95
2023-02-05T08:31:42.240Z,1.02
2023-02-05T08:34:10.203Z,1.85
2023-02-05T08:36:38.314Z,1.99
2023-02-05T08:39:06.281Z,2.02
2023-02-05T08:41:34.428Z,1.83
2023-02-05T08:44:02.408Z,2.01
2023-02-05T08:46:47.310Z,2.11
2023-02-05T08:49:17.931Z,2.22
2023-02-05T08:51:45.935Z,2.19
2023-02-05T08:54:15.287Z,2.24
2023-02-05T08:56:45.211Z,2.37
2023-02-05T08:59:13.565Z,2.20
2023-02-05T09:01:43.531Z,2.26
2023-02-05T09:04:14.088Z,2.25
2023-02-05T09:06:42.204Z,2.28
2023-02-05T09:09:10.026Z,2.33
2023-02-05T09:11:38.922Z,2.33
2023-02-05T09:14:07.699Z,2.30
2023-02-05T09:16:36.118Z,2.42
2023-02-05T09:19:05.379Z,2.37
2023-02-05T09:21:33.531Z,2.24
2023-02-05T09:24:01.495Z,2.47
2023-02-05T09:26:29.580Z,2.46
2023-02-05T09:28:57.482Z,1.89
2023-02-05T09:31:25.599Z,1.85
2023-02-05T09:33:55.729Z,2.00
2023-02-05T09:36:25.408Z,2.61
2023-02-05T09:39:12.001Z,2.53
2023-02-05T09:41:52.136Z,2.50
2023-02-05T09:44:33.719Z,2.71
2023-02-05T09:47:07.206Z,2.25
2023-02-05T09:49:45.555Z,2.89
2023-02-05T09:52:20.974Z,2.92
2023-02-05T09:54:55.731Z,2.69
2023-02-05T09:57:33.709Z,2.76
2023-02-05T10:00:02.066Z,2.96
2023-02-05T10:02:50.161Z,2.88
2023-02-05T10:05:22.342Z,2.83
2023-02-05T10:08:00.791Z,3.12
2023-02-05T10:10:30.276Z,2.71
2023-02-05T10:13:33.194Z,3.01
2023-02-05T10:16:16.422Z,2.88
2023-02-05T10:18:58.649Z,2.89
2023-02-05T10:21:40.494Z,2.76
2023-02-05T10:24:27.030Z,2.90
2023-02-05T10:27:00.667Z,2.97
2023-02-05T10:29:36.901Z,2.57
2023-02-05T10:32:17.539Z,3.02
2023-02-05T10:34:53.823Z,2.86
2023-02-05T10:37:29.346Z,2.73
2023-02-05T10:40:00.510Z,3.07
2023-02-05T10:42:33.774Z,3.21
2023-02-05T10:45:07.747Z,3.16
2023-02-05T10:47:54.639Z,3.02
2023-02-05T10:50:29.531Z,3.06
2023-02-05T10:52:57.831Z,2.94
2023-02-05T10:55:27.427Z,3.17
2023-02-05T10:57:55.496Z,2.98
2023-02-05T11:00:24.836Z,3.32
2023-02-05T11:02:55.720Z,2.79
2023-02-05T11:05:29.512Z,3.21
2023-02-05T11:07:58.538Z,3.36
2023-02-05T11:10:29.552Z,3.44
2023-02-05T11:13:00.445Z,3.52
2023-02-05T11:15:31.636Z,3.61
2023-02-05T11:18:01.865Z,3.60
2023-02-05T11:20:33.111Z,3.59
2023-02-05T11:23:15.431Z,3.52
2023-02-05T11:25:53.313Z,3.62
2023-02-05T11:28:25.088Z,3.81
2023-02-05T11:30:53.490Z,3.87
2023-02-05T11:33:28.862Z,3.73
2023-02-05T11:36:00.295Z,3.90
2023-02-05T11:38:39.660Z,3.96
2023-02-05T11:41:11.385Z,4.00
2023-02-05T11:43:42.176Z,4.01
2023-02-05T11:46:17.359Z,4.05
2023-02-05T11:48:52.110Z,4.06
2023-02-05T11:51:38.616Z,4.11
2023-02-05T11:54:18.738Z,4.20
2023-02-05T11:57:02.124Z,4.09
2023-02-05T11:59:30.242Z,3.76
2023-02-05T12:02:28.549Z,4.02
2023-02-05T12:04:59.963Z,4.03
2023-02-05T12:07:33.127Z,4.07
2023-02-05T12:10:01.349Z,4.05
2023-02-05T12:12:39.580Z,3.92
2023-02-05T12:15:16.476Z,4.05
2023-02-05T12:17:54.179Z,4.09
2023-02-05T12:20:27.686Z,4.16
2023-02-05T12:23:35.466Z,3.77
2023-02-05T12:26:27.388Z,4.19
2023-02-05T12:29:08.314Z,4.12
2023-02-05T12:31:56.298Z,4.10
2023-02-05T12:34:32.306Z,3.80
2023-02-05T12:37:18.254Z,3.75
2023-02-05T12:39:51.531Z,3.62
2023-02-05T12:42:31.476Z,4.17
2023-02-05T12:45:25.906Z,4.20
2023-02-05T12:48:12.877Z,4.02
2023-02-05T12:50:54.262Z,4.02
2023-02-05T12:53:36.792Z,4.06
2023-02-05T12:56:22.260Z,4.14
2023-02-05T12:58:57.196Z,4.16
2023-02-05T13:01:34.997Z,3.95
2023-02-05T13:04:03.844Z,4.04
2023-02-05T13:06:35.513Z,4.15
2023-02-05T13:09:07.823Z,4.45
2023-02-05T13:11:41.533Z,4.23
2023-02-05T13:14:17.427Z,4.35
2023-02-05T13:16:49.689Z,4.34
2023-02-05T13:19:26.793Z,4.34
2023-02-05T13:22:15.288Z,4.08
2023-02-05T13:25:08.560Z,4.32
2023-02-05T13:27:58.824Z,4.30
2023-02-05T13:30:32.119Z,4.19
2023-02-05T13:33:05.948Z,4.34
2023-02-05T13:35:42.543Z,4.36
2023-02-05T13:38:39.701Z,4.43
2023-02-05T13:41:25.297Z,4.00
2023-02-05T13:44:19.231Z,4.45
2023-02-05T13:47:32.545Z,4.26
2023-02-05T13:50:32.959Z,4.32
2023-02-05T13:53:16.624Z,4.35
2023-02-05T13:56:03.410Z,4.26
2023-02-05T13:58:35.819Z,4.33
2023-02-05T14:01:06.995Z,4.34
2023-02-05T14:03:38.889Z,4.28
2023-02-05T14:06:17.839Z,4.22
2023-02-05T14:08:47.273Z,4.20
2023-02-05T14:11:15.531Z,4.21
2023-02-05T14:13:43.900Z,4.19
2023-02-05T14:16:35.114Z,4.27
2023-02-05T14:19:17.655Z,4.13
2023-02-05T14:22:03.878Z,4.15
2023-02-05T14:24:45.997Z,3.51
2023-02-05T14:27:51.278Z,4.06
2023-02-05T14:30:48.101Z,3.99
2023-02-05T14:33:37.884Z,3.99
2023-02-05T14:36:36.084Z,4.07
2023-02-05T14:39:07.743Z,4.00
2023-02-05T14:41:50.966Z,4.07
2023-02-05T14:44:23.245Z,4.05
2023-02-05T14:46:59.893Z,3.80
2023-02-05T14:49:31.967Z,4.07
2023-02-05T14:52:02.923Z,3.70
2023-02-05T14:54:34.872Z,3.25
2023-02-05T14:57:18.676Z,4.09
2023-02-05T14:59:54.773Z,4.08
2023-02-05T15:03:02.388Z,3.99
2023-02-05T15:05:37.847Z,3.95
2023-02-05T15:08:13.433Z,3.78
2023-02-05T15:10:49.034Z,4.02
2023-02-05T15:13:20.866Z,3.91
2023-02-05T15:16:25.482Z,4.00
2023-02-05T15:18:56.463Z,3.84
2023-02-05T15:21:28.604Z,3.71
2023-02-05T15:24:02.786Z,3.64
2023-02-05T15:26:40.929Z,3.64
2023-02-05T15:29:15.353Z,3.74
2023-02-05T15:31:47.208Z,3.68
2023-02-05T15:34:32.435Z,3.54
2023-02-05T15:37:06.476Z,3.80
2023-02-05T15:39:45.366Z,3.62
2023-02-05T15:42:19.247Z,3.81
2023-02-05T15:44:48.869Z,4.05
2023-02-05T15:47:21.842Z,3.97
2023-02-05T15:49:52.847Z,4.04
2023-02-05T15:52:24.664Z,3.96
2023-02-05T15:54:55.107Z,3.67
2023-02-05T15:57:27.084Z,3.69
2023-02-05T15:59:58.464Z,3.86
2023-02-05T16:02:28.988Z,3.58
2023-02-05T16:05:00.004Z,4.08
2023-02-05T16:07:31.125Z,3.93
2023-02-05T16:10:01.372Z,3.40
2023-02-05T16:12:30.468Z,3.80
2023-02-05T16:15:01.606Z,2.40
2023-02-05T16:17:35.958Z,3.93
2023-02-05T16:20:15.328Z,3.77
2023-02-05T16:22:46.578Z,3.41
2023-02-05T16:25:30.819Z,3.71
2023-02-05T16:28:03.863Z,3.95
2023-02-05T16:30:40.576Z,3.90
2023-02-05T16:33:15.545Z,3.80
2023-02-05T16:35:48.438Z,3.74
2023-02-05T16:38:18.850Z,3.78
2023-02-05T16:40:50.309Z,3.77
2023-02-05T16:43:26.379Z,3.61
2023-02-05T16:46:23.472Z,3.98
2023-02-05T16:48:52.964Z,3.87
2023-02-05T16:51:35.632Z,3.99
2023-02-05T16:54:22.732Z,3.62
2023-02-05T16:56:56.992Z,4.00
2023-02-05T16:59:27.214Z,3.98
2023-02-05T17:01:56.566Z,3.89
2023-02-05T17:04:28.467Z,3.76
2023-02-05T17:06:59.103Z,3.81
2023-02-05T17:09:33.183Z,3.93
2023-02-05T17:12:26.821Z,3.83
2023-02-05T17:14:57.047Z,4.03
2023-02-05T17:17:26.310Z,3.99
2023-02-05T17:20:06.297Z,3.97
2023-02-05T17:22:35.136Z,3.78
2023-02-05T17:25:05.599Z,3.39
2023-02-05T17:27:38.053Z,3.53
2023-02-05T17:30:11.687Z,3.97
2023-02-05T17:32:41.205Z,3.97
2023-02-05T17:35:14.095Z,3.87
2023-02-05T17:37:41.905Z,3.93
2023-02-05T17:40:11.096Z,3.81
2023-02-05T17:42:38.979Z,3.88
2023-02-05T17:45:16.170Z,3.67
2023-02-05T17:47:45.610Z,3.70
2023-02-05T17:50:14.018Z,3.97
2023-02-05T17:52:42.085Z,3.26
2023-02-05T17:55:14.751Z,4.01
2023-02-05T17:57:43.593Z,3.90
2023-02-05T18:00:15.607Z,3.32
2023-02-05T18:02:45.063Z,3.82
2023-02-05T18:05:13.185Z,3.92
2023-02-05T18:07:43.866Z,3.64
2023-02-05T18:10:15.302Z,3.85
2023-02-05T18:12:43.319Z,3.16
2023-02-05T18:15:12.057Z,3.80
2023-02-05T18:17:41.107Z,3.86
2023-02-05T18:20:12.937Z,3.61
2023-02-05T18:22:40.932Z,4.02
2023-02-05T18:25:09.978Z,4.08
2023-02-05T18:27:38.187Z,3.90
2023-02-05T18:30:07.652Z,3.88
2023-02-05T18:32:35.559Z,4.06
2023-02-05T18:35:04.077Z,4.01
2023-02-05T18:37:33.369Z,4.10
2023-02-05T18:40:01.233Z,3.61
2023-02-05T18:42:30.883Z,4.02
2023-02-05T18:44:58.673Z,3.98
2023-02-05T18:47:26.582Z,3.81
2023-02-05T18:49:54.423Z,3.38
2023-02-05T18:52:22.953Z,3.74
2023-02-05T18:54:52.740Z,3.84
2023-02-05T18:57:21.016Z,3.72
2023-02-05T18:59:49.015Z,3.40
2023-02-05T19:02:16.965Z,3.26
2023-02-05T19:04:45.625Z,3.71
2023-02-05T19:07:13.596Z,3.72
2023-02-05T19:09:41.610Z,3.81
2023-02-05T19:12:10.858Z,3.77
2023-02-05T19:14:38.931Z,3.73
2023-02-05T19:17:06.905Z,3.54
2023-02-05T19:19:36.067Z,3.73
2023-02-05T19:22:06.312Z,3.71
2023-02-05T19:24:35.302Z,3.72
2023-02-05T19:27:03.125Z,3.69
2023-02-05T19:29:38.052Z,3.66
2023-02-05T19:32:06.770Z,3.61
2023-02-05T19:34:35.694Z,3.54
2023-02-05T19:37:03.574Z,3.46
2023-02-05T19:39:31.686Z,3.47
2023-02-05T19:41:59.660Z,3.52
2023-02-05T19:44:29.494Z,3.38
2023-02-05T19:46:59.137Z,3.38
2023-02-05T19:49:27.224Z,3.55
2023-02-05T19:51:56.539Z,3.48
2023-02-05T19:54:24.482Z,3.44
2023-02-05T19:56:52.807Z,3.33
2023-02-05T19:59:21.146Z,3.29
2023-02-05T20:01:50.116Z,3.30
2023-02-05T20:04:24.254Z,3.37
2023-02-05T20:06:56.571Z,3.28
2023-02-05T20:09:24.639Z,3.41
2023-02-05T20:11:54.583Z,3.41
2023-02-05T20:14:24.002Z,3.21
2023-02-05T20:16:52.790Z,3.31
2023-02-05T20:19:22.677Z,3.32
2023-02-05T20:21:51.152Z,3.11
2023-02-05T20:24:19.131Z,3.34
2023-02-05T20:26:48.765Z,2.65
2023-02-05T20:29:34.929Z,3.40
2023-02-05T20:32:02.947Z,3.34
2023-02-05T20:34:35.332Z,3.34
2023-02-05T20:37:05.957Z,3.46
2023-02-05T20:39:35.413Z,3.39
2023-02-05T20:42:03.640Z,3.49
2023-02-05T20:44:36.193Z,3.40
2023-02-05T20:47:04.516Z,3.40
2023-02-05T20:49:35.213Z,3.33
2023-02-05T20:52:03.159Z,2.93
2023-02-05T20:54:31.593Z,3.36
2023-02-05T20:57:00.358Z,2.48
2023-02-05T20:59:29.064Z,3.49
2023-02-05T21:01:57.101Z,3.40
2023-02-05T21:04:25.518Z,3.32
2023-02-05T21:06:55.076Z,3.20
2023-02-05T21:09:23.360Z,3.31
2023-02-05T21:11:55.311Z,2.09
2023-02-05T21:14:23.518Z,3.20
2023-02-05T21:16:51.718Z,3.28
2023-02-05T21:19:19.878Z,3.30
2023-02-05T21:21:50.328Z,3.06
2023-02-05T21:24:20.768Z,3.18
2023-02-05T21:26:50.674Z,3.27
2023-02-05T21:29:20.658Z,3.14
2023-02-05T21:31:50.650Z,2.95
2023-02-05T21:34:21.774Z,2.57
2023-02-05T21:36:50.761Z,3.26
2023-02-05T21:39:20.555Z,3.15
2023-02-05T21:41:50.505Z,3.40
2023-02-05T21:44:19.223Z,3.33
2023-02-05T21:46:47.210Z,3.40
2023-02-05T21:49:15.576Z,3.33
2023-02-05T21:51:43.640Z,3.37
2023-02-05T21:54:13.248Z,3.37
2023-02-05T21:56:44.140Z,3.37
2023-02-05T21:59:15.477Z,3.42
2023-02-05T22:01:43.753Z,3.20
2023-02-05T22:04:13.831Z,3.46
2023-02-05T22:06:42.238Z,3.40
2023-02-05T22:09:12.084Z,3.32
2023-02-05T22:11:40.628Z,3.07
2023-02-05T22:14:10.889Z,3.22
2023-02-05T22:16:39.388Z,3.33
2023-02-05T22:19:07.982Z,3.31
2023-02-05T22:21:38.072Z,3.21
2023-02-05T22:24:08.028Z,2.40
2023-02-05T22:26:38.808Z,2.98
2023-02-05T22:29:10.061Z,3.41
2023-02-05T22:31:38.166Z,3.11
2023-02-05T22:34:06.755Z,3.36
2023-02-05T22:36:36.352Z,3.15
2023-02-05T22:39:06.098Z,2.78
2023-02-05T22:41:36.040Z,3.52
2023-02-05T22:44:05.735Z,3.48
2023-02-05T22:46:38.795Z,3.48
2023-02-05T22:49:06.794Z,3.52
2023-02-05T22:51:37.021Z,3.47
2023-02-05T22:54:05.442Z,3.58
2023-02-05T22:56:34.088Z,3.46
2023-02-05T22:59:03.571Z,3.47
2023-02-05T23:01:35.165Z,3.38
2023-02-05T23:04:05.384Z,3.43
2023-02-05T23:06:34.016Z,3.41
2023-02-05T23:09:04.335Z,3.38
2023-02-05T23:11:33.537Z,3.33
2023-02-05T23:14:02.152Z,3.47
2023-02-05T23:16:32.496Z,3.08
2023-02-05T23:19:04.746Z,3.62
2023-02-05T23:21:35.604Z,3.32
2023-02-05T23:24:04.402Z,3.42
2023-02-05T23:26:33.512Z,3.38
2023-02-05T23:29:01.778Z,3.20
2023-02-05T23:31:30.645Z,2.70
2023-02-05T23:33:58.932Z,3.27
2023-02-05T23:36:28.257Z,3.19
2023-02-05T23:38:56.162Z,3.18
2023-02-05T23:41:36.679Z,2.79
2023-02-05T23:44:06.873Z,2.79
2023-02-05T23:46:35.503Z,3.13
2023-02-05T23:49:03.641Z,3.02
2023-02-05T23:51:33.630Z,3.13
2023-02-05T23:54:03.558Z,2.91
2023-02-05T23:56:31.592Z,2.78
2023-02-05T23:59:00.165Z,2.70
